Time;durP1;ratioP1;P1;durP2;ratioP2;P2;SDS_P1;SDS_P2;PMS_P1;PMS_P2;Temp;Humidity;BMP_temperature;BMP_pressure;BME280_temperature;BME280_humidity;BME280_pressure;Samples;Min_cycle;Max_cycle;Signal;HPM_P1;HPM_P2
2023/07/04 00:01:17;;;;;;;0.10;0.10;;;;;;;14.55;100.00;96249.59;5071738;28;20149;-79
2023/07/04 00:04:07;;;;;;;0.10;0.10;;;;;;;14.49;100.00;96245.34;5074186;28;20694;-79
2023/07/04 00:06:53;;;;;;;0.10;0.10;;;;;;;14.42;100.00;96250.19;5070720;28;20036;-80
2023/07/04 00:09:39;;;;;;;0.10;0.10;;;;;;;14.34;100.00;96242.72;5059801;28;20046;-79
2023/07/04 00:12:25;;;;;;;0.15;0.15;;;;;;;14.25;100.00;96239.78;5071480;28;20478;-79
2023/07/04 00:15:13;;;;;;;0.10;0.10;;;;;;;14.19;100.00;96240.91;5072793;28;20031;-79
2023/07/04 00:17:59;;;;;;;0.10;0.10;;;;;;;14.18;100.00;96245.47;5074083;28;20039;-80
2023/07/04 00:20:44;;;;;;;0.10;0.10;;;;;;;14.08;100.00;96239.31;5073627;28;20773;-79
2023/07/04 00:23:34;;;;;;;0.10;0.10;;;;;;;14.03;100.00;96247.44;5073834;28;20867;-79
2023/07/04 00:26:22;;;;;;;0.10;0.10;;;;;;;13.99;100.00;96247.16;5073445;28;20381;-79
2023/07/04 00:29:08;;;;;;;0.10;0.10;;;;;;;13.99;100.00;96244.47;5072025;28;20028;-79
2023/07/04 00:31:54;;;;;;;0.10;0.10;;;;;;;13.99;100.00;96249.84;5058124;28;20056;-79
2023/07/04 00:34:39;;;;;;;0.03;0.03;;;;;;;13.91;100.00;96236.97;5066111;28;20824;-80
2023/07/04 00:37:28;;;;;;;0.10;0.10;;;;;;;13.87;100.00;96239.41;5073852;28;20032;-79
2023/07/04 00:40:15;;;;;;;0.10;0.10;;;;;;;13.84;100.00;96248.00;5059686;28;20099;-80
2023/07/04 00:43:04;;;;;;;0.10;0.10;;;;;;;13.84;100.00;96247.19;5073124;28;20048;-80
2023/07/04 00:45:56;;;;;;;0.10;0.10;;;;;;;13.81;100.00;96253.16;5073139;28;20070;-79
2023/07/04 00:48:45;;;;;;;0.00;0.00;;;;;;;13.77;100.00;96247.50;5058021;28;20039;-79
2023/07/04 00:51:32;;;;;;;0.10;0.10;;;;;;;13.69;100.00;96241.88;5073771;28;20689;-79
2023/07/04 00:54:23;;;;;;;0.05;0.05;;;;;;;13.68;100.00;96243.75;5057356;28;20040;-79
2023/07/04 00:57:12;;;;;;;0.10;0.10;;;;;;;13.65;100.00;96247.81;5053119;28;20036;-79
2023/07/04 01:00:09;;;;;;;0.00;0.00;;;;;;;13.64;100.00;96250.78;5058519;28;20043;-80
2023/07/04 01:03:05;;;;;;;0.10;0.10;;;;;;;13.59;100.00;96248.88;5072544;28;20093;-79
2023/07/04 01:06:12;;;;;;;0.10;0.10;;;;;;;13.52;100.00;96243.00;5055769;28;20051;-79
2023/07/04 01:09:01;;;;;;;0.10;0.10;;;;;;;13.50;100.00;96249.72;5072897;28;20044;-79
2023/07/04 01:11:49;;;;;;;0.03;0.03;;;;;;;13.44;100.00;96240.84;5072167;28;20504;-79
2023/07/04 01:14:35;;;;;;;0.10;0.10;;;;;;;13.45;100.00;96247.84;5057544;28;20047;-80
2023/07/04 01:17:21;;;;;;;0.10;0.10;;;;;;;13.36;100.00;96242.22;5058879;28;20036;-79
2023/07/04 01:20:09;;;;;;;0.10;0.10;;;;;;;13.42;100.00;96253.75;5057921;28;20036;-79
2023/07/04 01:23:20;;;;;;;0.10;0.10;;;;;;;13.53;100.00;96244.59;5055615;28;20892;-79
2023/07/04 01:26:16;;;;;;;0.10;0.10;;;;;;;13.48;100.00;96247.31;5072682;28;20051;-79
2023/07/04 01:29:05;;;;;;;0.10;0.10;;;;;;;13.37;100.00;96256.44;5070821;28;20039;-79
2023/07/04 01:31:51;;;;;;;0.10;0.10;;;;;;;13.31;100.00;96236.06;5069228;28;20039;-79
2023/07/04 01:34:37;;;;;;;0.20;0.20;;;;;;;13.28;100.00;96252.69;5070275;28;20047;-79
2023/07/04 01:37:23;;;;;;;0.10;0.10;;;;;;;13.25;100.00;96248.69;5057910;28;20040;-79
2023/07/04 01:40:10;;;;;;;0.20;0.20;;;;;;;13.20;100.00;96243.31;5071630;28;20074;-79
2023/07/04 01:42:55;;;;;;;0.10;0.10;;;;;;;13.16;100.00;96244.91;5071482;28;20036;-79
2023/07/04 01:45:45;;;;;;;0.10;0.10;;;;;;;13.22;100.00;96253.78;5058287;28;20156;-79
2023/07/04 01:48:31;;;;;;;0.10;0.10;;;;;;;13.15;100.00;96247.84;5049880;28;20047;-79
2023/07/04 01:51:37;;;;;;;0.10;0.10;;;;;;;13.07;100.00;96250.00;5072669;28;20113;-79
2023/07/04 01:54:23;;;;;;;0.10;0.10;;;;;;;13.04;100.00;96247.03;5072872;28;20172;-78
2023/07/04 01:57:10;;;;;;;0.10;0.10;;;;;;;13.00;100.00;96248.66;5056760;28;20068;-79
2023/07/04 01:59:56;;;;;;;0.10;0.10;;;;;;;12.93;100.00;96240.88;5057479;28;20044;-79
2023/07/04 02:02:43;;;;;;;0.10;0.10;;;;;;;12.90;100.00;96241.38;5054718;28;20626;-79
2023/07/04 02:05:29;;;;;;;0.10;0.10;;;;;;;12.88;100.00;96240.06;5056823;28;20041;-79
2023/07/04 02:08:15;;;;;;;0.00;0.00;;;;;;;12.84;100.00;96234.44;5071059;28;20062;-79
2023/07/04 02:11:02;;;;;;;0.10;0.10;;;;;;;12.81;100.00;96238.44;5071474;28;20039;-79
2023/07/04 02:13:48;;;;;;;0.10;0.10;;;;;;;12.85;100.00;96254.84;5056037;28;20046;-79
2023/07/04 02:16:34;;;;;;;0.10;0.10;;;;;;;12.79;100.00;96237.09;5072322;28;20122;-79
2023/07/04 02:19:20;;;;;;;0.10;0.10;;;;;;;12.77;100.00;96239.25;5071323;28;20554;-79
2023/07/04 02:22:07;;;;;;;0.10;0.10;;;;;;;12.71;100.00;96246.50;5056930;28;20194;-78
2023/07/04 02:24:52;;;;;;;0.10;0.10;;;;;;;12.70;100.00;96241.41;5057177;28;20075;-78
2023/07/04 02:27:39;;;;;;;0.10;0.10;;;;;;;12.66;100.00;96241.09;5068642;28;20064;-79
2023/07/04 02:30:25;;;;;;;0.10;0.10;;;;;;;12.61;100.00;96241.13;5051251;28;20039;-80
2023/07/04 02:33:12;;;;;;;0.00;0.00;;;;;;;12.62;100.00;96241.91;5056982;28;20044;-79
2023/07/04 02:35:58;;;;;;;0.10;0.10;;;;;;;12.59;100.00;96245.13;5055056;28;20032;-79
2023/07/04 02:38:44;;;;;;;0.10;0.10;;;;;;;12.53;100.00;96247.81;5071856;28;20032;-79
2023/07/04 02:41:30;;;;;;;0.10;0.10;;;;;;;12.51;100.00;96252.63;5068829;28;20044;-79
2023/07/04 02:44:18;;;;;;;0.10;0.10;;;;;;;12.44;100.00;96253.94;5054678;28;20872;-79
2023/07/04 02:47:07;;;;;;;0.10;0.10;;;;;;;12.38;100.00;96250.47;5057763;28;20481;-79
2023/07/04 02:49:56;;;;;;;0.08;0.08;;;;;;;12.38;100.00;96255.81;5057820;28;21023;-79
2023/07/04 02:52:43;;;;;;;0.10;0.10;;;;;;;12.35;100.00;96244.81;5059311;28;20035;-79
2023/07/04 02:55:29;;;;;;;0.10;0.10;;;;;;;12.27;100.00;96238.06;5071606;28;20039;-80
2023/07/04 02:58:15;;;;;;;0.10;0.10;;;;;;;12.27;100.00;96259.53;5042726;28;20036;-79
2023/07/04 03:01:04;;;;;;;0.10;0.10;;;;;;;12.21;100.00;96261.38;5053531;28;20040;-80
2023/07/04 03:03:50;;;;;;;0.10;0.10;;;;;;;12.21;100.00;96258.72;5041055;28;20939;-79
2023/07/04 03:06:36;;;;;;;0.10;0.10;;;;;;;12.17;100.00;96259.50;5067178;28;20048;-79
2023/07/04 03:09:23;;;;;;;0.10;0.10;;;;;;;12.09;100.00;96246.63;5070042;28;20040;-79
2023/07/04 03:12:09;;;;;;;0.10;0.10;;;;;;;12.13;100.00;96255.72;5050530;28;20079;-79
2023/07/04 03:14:55;;;;;;;0.00;0.00;;;;;;;12.07;100.00;96257.59;5055361;28;21389;-79
2023/07/04 03:17:41;;;;;;;0.10;0.10;;;;;;;12.07;100.00;96257.59;5068387;28;20043;-79
2023/07/04 03:20:27;;;;;;;0.10;0.10;;;;;;;12.05;100.00;96257.03;5054777;28;20121;-79
2023/07/04 03:23:14;;;;;;;0.10;0.10;;;;;;;12.01;100.00;96261.34;5070345;28;20070;-79
2023/07/04 03:26:01;;;;;;;0.10;0.10;;;;;;;11.99;100.00;96261.59;5070074;28;20096;-79
2023/07/04 03:28:48;;;;;;;0.10;0.10;;;;;;;12.00;100.00;96257.03;5055068;28;20043;-79
2023/07/04 03:31:35;;;;;;;0.10;0.10;;;;;;;11.96;100.00;96254.06;5055207;28;20042;-79
2023/07/04 03:34:22;;;;;;;0.08;0.08;;;;;;;11.97;100.00;96257.53;5057353;28;20115;-80
2023/07/04 03:37:08;;;;;;;0.10;0.10;;;;;;;11.95;100.00;96263.19;5074422;28;20779;-80
2023/07/04 03:39:56;;;;;;;0.05;0.05;;;;;;;11.94;100.00;96252.72;5054609;28;20609;-79
2023/07/04 03:42:42;;;;;;;0.10;0.10;;;;;;;11.89;100.00;96255.38;5058110;28;20039;-79
2023/07/04 03:45:28;;;;;;;0.10;0.10;;;;;;;11.89;100.00;96260.72;5073412;28;20127;-79
2023/07/04 03:48:14;;;;;;;0.10;0.10;;;;;;;11.91;100.00;96261.28;5074933;28;20492;-79
2023/07/04 03:51:01;;;;;;;0.10;0.10;;;;;;;11.92;100.00;96266.38;5058306;28;20123;-80
2023/07/04 03:53:48;;;;;;;0.10;0.10;;;;;;;11.86;100.00;96270.09;5059793;28;20862;-80
2023/07/04 03:56:34;;;;;;;0.10;0.10;;;;;;;11.80;100.00;96271.16;5058756;28;20035;-79
2023/07/04 03:59:20;;;;;;;0.10;0.10;;;;;;;11.85;100.00;96273.88;5074245;28;20040;-80
2023/07/04 04:02:06;;;;;;;0.10;0.10;;;;;;;11.88;100.00;96272.53;5046528;28;20772;-80
2023/07/04 04:04:52;;;;;;;0.10;0.10;;;;;;;11.78;100.00;96283.16;5060545;28;20115;-77
2023/07/04 04:07:38;;;;;;;0.10;0.10;;;;;;;11.78;100.00;96273.25;5075009;28;20044;-78
2023/07/04 04:10:24;;;;;;;0.10;0.10;;;;;;;11.82;100.00;96270.88;5073117;28;20047;-77
2023/07/04 04:13:10;;;;;;;0.10;0.10;;;;;;;11.81;100.00;96275.44;5072817;28;20044;-77
2023/07/04 04:15:56;;;;;;;0.10;0.10;;;;;;;11.81;100.00;96271.94;5075744;28;21136;-77
2023/07/04 04:18:41;;;;;;;0.10;0.10;;;;;;;11.84;100.00;96269.56;5075467;28;20121;-77
2023/07/04 04:21:27;;;;;;;0.10;0.10;;;;;;;11.79;100.00;96269.50;5074256;28;20848;-78
2023/07/04 04:24:14;;;;;;;0.00;0.00;;;;;;;11.82;100.00;96273.56;5073106;28;20079;-78
2023/07/04 04:27:02;;;;;;;0.00;0.00;;;;;;;11.86;100.00;96275.47;5059576;28;20804;-78
2023/07/04 04:29:48;;;;;;;0.10;0.10;;;;;;;11.87;100.00;96287.00;5075464;28;20071;-78
2023/07/04 04:32:35;;;;;;;0.10;0.10;;;;;;;11.85;100.00;96271.19;5073442;28;20196;-78
2023/07/04 04:35:21;;;;;;;0.10;0.10;;;;;;;11.88;100.00;96291.28;5073227;28;20666;-78
2023/07/04 04:38:10;;;;;;;0.10;0.10;;;;;;;11.91;100.00;96286.22;5074035;28;20085;-79
2023/07/04 04:41:03;;;;;;;0.10;0.10;;;;;;;11.95;100.00;96289.19;5072366;28;20052;-79
2023/07/04 04:43:50;;;;;;;0.10;0.10;;;;;;;11.93;100.00;96300.19;5072576;28;20047;-78
2023/07/04 04:46:44;;;;;;;0.10;0.10;;;;;;;11.96;100.00;96288.91;5074654;28;20109;-79
2023/07/04 04:49:30;;;;;;;0.10;0.10;;;;;;;12.05;100.00;96296.47;5060882;28;20036;-79
2023/07/04 04:52:19;;;;;;;0.00;0.00;;;;;;;12.02;100.00;96295.13;5073528;28;20044;-79
2023/07/04 04:55:07;;;;;;;0.10;0.10;;;;;;;12.05;100.00;96299.16;5072833;28;20036;-79
2023/07/04 04:57:53;;;;;;;0.20;0.20;;;;;;;12.11;100.00;96303.47;5059563;28;20121;-79
2023/07/04 05:00:39;;;;;;;0.10;0.10;;;;;;;12.15;100.00;96304.56;5059099;28;20398;-79
2023/07/04 05:03:25;;;;;;;0.10;0.10;;;;;;;12.19;100.00;96308.34;5074178;28;20198;-78
2023/07/04 05:06:12;;;;;;;0.10;0.10;;;;;;;12.19;100.00;96297.59;5074574;28;20093;-79
2023/07/04 05:08:58;;;;;;;0.03;0.03;;;;;;;12.29;100.00;96308.38;5073590;28;20047;-79
2023/07/04 05:11:44;;;;;;;0.20;0.20;;;;;;;12.30;100.00;96307.31;5072194;28;20036;-79
2023/07/04 05:14:30;;;;;;;0.10;0.10;;;;;;;12.37;100.00;96315.09;5073458;28;20089;-78
2023/07/04 05:17:16;;;;;;;0.10;0.10;;;;;;;12.38;100.00;96316.75;5059401;28;20501;-79
2023/07/04 05:20:05;;;;;;;0.10;0.10;;;;;;;12.41;100.00;96326.94;5073815;28;20043;-79
2023/07/04 05:22:56;;;;;;;0.10;0.10;;;;;;;12.45;100.00;96319.97;5072618;28;20105;-79
2023/07/04 05:25:43;;;;;;;0.10;0.10;;;;;;;12.45;100.00;96326.16;5073433;28;20681;-79
2023/07/04 05:28:29;;;;;;;0.10;0.10;;;;;;;12.52;100.00;96320.53;5046205;28;20040;-79
2023/07/04 05:31:16;;;;;;;0.10;0.10;;;;;;;12.46;100.00;96319.72;5057858;28;20032;-79
2023/07/04 05:34:02;;;;;;;0.10;0.10;;;;;;;12.47;100.00;96323.22;5073330;28;20028;-79
2023/07/04 05:36:48;;;;;;;0.10;0.10;;;;;;;12.49;100.00;96313.00;5073417;28;20448;-79
2023/07/04 05:39:34;;;;;;;0.10;0.10;;;;;;;12.59;100.00;96325.66;5071552;28;20908;-79
2023/07/04 05:42:20;;;;;;;0.10;0.10;;;;;;;12.71;100.00;96326.22;5059033;28;20036;-79
2023/07/04 05:45:06;;;;;;;0.10;0.10;;;;;;;12.73;100.00;96321.38;5072388;28;20036;-79
2023/07/04 05:47:52;;;;;;;0.10;0.10;;;;;;;12.78;100.00;96324.91;5055640;28;20044;-80
2023/07/04 05:50:38;;;;;;;0.10;0.10;;;;;;;12.89;100.00;96331.09;5058035;28;20569;-80
2023/07/04 05:53:28;;;;;;;0.10;0.10;;;;;;;12.86;100.00;96331.63;5057486;28;20053;-79
2023/07/04 05:56:15;;;;;;;0.10;0.10;;;;;;;12.92;100.00;96338.63;5073960;28;20592;-79
2023/07/04 05:59:02;;;;;;;0.10;0.10;;;;;;;12.99;100.00;96341.03;5056829;28;20032;-79
2023/07/04 06:01:50;;;;;;;0.20;0.20;;;;;;;12.97;100.00;96338.63;5054435;28;20915;-79
2023/07/04 06:04:36;;;;;;;0.10;0.10;;;;;;;13.04;100.00;96349.91;5057468;28;20522;-79
2023/07/04 06:07:22;;;;;;;0.10;0.10;;;;;;;13.14;100.00;96342.94;5066125;28;20028;-79
2023/07/04 06:10:08;;;;;;;0.10;0.10;;;;;;;13.21;100.00;96343.50;5057418;28;20800;-79
2023/07/04 06:12:54;;;;;;;0.10;0.10;;;;;;;13.22;100.00;96358.56;5057512;28;20040;-80
2023/07/04 06:15:40;;;;;;;0.10;0.10;;;;;;;13.29;100.00;96362.59;5072550;28;20036;-80
2023/07/04 06:18:26;;;;;;;0.10;0.10;;;;;;;13.42;100.00;96360.47;5057246;28;20057;-79
2023/07/04 06:21:13;;;;;;;0.10;0.10;;;;;;;13.45;100.00;96371.47;5058002;28;20682;-79
2023/07/04 06:23:59;;;;;;;0.10;0.10;;;;;;;13.50;100.00;96368.78;5071844;28;20734;-79
2023/07/04 06:26:46;;;;;;;0.10;0.10;;;;;;;13.62;100.00;96355.91;5057673;28;20804;-79
2023/07/04 06:29:32;;;;;;;0.10;0.10;;;;;;;13.72;100.00;96354.28;5056185;28;20046;-80
2023/07/04 06:32:18;;;;;;;0.10;0.10;;;;;;;13.77;100.00;96349.69;5070148;28;20032;-79
2023/07/04 06:35:04;;;;;;;0.10;0.10;;;;;;;13.79;100.00;96352.13;5071822;28;20044;-79
2023/07/04 06:37:50;;;;;;;0.10;0.10;;;;;;;13.89;100.00;96358.28;5071772;28;20454;-80
2023/07/04 06:40:37;;;;;;;0.10;0.10;;;;;;;13.87;100.00;96348.88;5054662;28;20047;-79
2023/07/04 06:43:24;;;;;;;0.10;0.10;;;;;;;13.96;100.00;96355.31;5070495;28;20040;-79
2023/07/04 06:46:16;;;;;;;0.10;0.10;;;;;;;13.86;100.00;96358.84;5073457;28;20046;-81
2023/07/04 06:49:02;;;;;;;0.10;0.10;;;;;;;13.83;100.00;96366.63;5055407;28;20036;-79
2023/07/04 06:51:48;;;;;;;0.15;0.15;;;;;;;13.92;100.00;96367.69;5055069;28;20101;-79
2023/07/04 06:54:34;;;;;;;0.10;0.10;;;;;;;13.94;100.00;96366.34;5044106;28;20036;-79
2023/07/04 06:57:20;;;;;;;0.10;0.10;;;;;;;14.04;100.00;96367.41;5041769;28;20694;-79
2023/07/04 07:00:07;;;;;;;0.17;0.17;;;;;;;14.03;100.00;96365.78;5054972;28;20040;-79
2023/07/04 07:02:53;;;;;;;0.00;0.00;;;;;;;14.13;100.00;96374.63;5057726;28;20044;-80
2023/07/04 07:05:40;;;;;;;0.20;0.20;;;;;;;14.14;100.00;96367.38;5056932;28;20040;-79
2023/07/04 07:08:26;;;;;;;0.17;0.17;;;;;;;14.13;100.00;96382.72;5069879;28;21022;-79
2023/07/04 07:11:14;;;;;;;0.10;0.10;;;;;;;14.28;100.00;96383.75;5073713;28;20050;-80
2023/07/04 07:14:01;;;;;;;0.10;0.10;;;;;;;14.41;100.00;96383.19;5058834;28;20074;-79
2023/07/04 07:16:46;;;;;;;0.20;0.20;;;;;;;14.53;100.00;96374.81;5055651;28;20036;-80
2023/07/04 07:19:33;;;;;;;0.10;0.10;;;;;;;14.43;100.00;96375.63;5055288;28;20744;-80
2023/07/04 07:22:19;;;;;;;0.17;0.17;;;;;;;14.56;100.00;96380.47;5061341;28;20169;-80
2023/07/04 07:25:05;;;;;;;0.10;0.10;;;;;;;14.61;100.00;96377.75;5060193;28;20039;-80
2023/07/04 07:27:52;;;;;;;0.10;0.10;;;;;;;14.56;100.00;96383.16;5074859;28;20036;-79
2023/07/04 07:30:38;;;;;;;0.10;0.10;;;;;;;14.72;100.00;96376.63;5073410;28;20636;-80
2023/07/04 07:33:24;;;;;;;0.10;0.10;;;;;;;14.88;100.00;96392.72;5059199;28;20485;-80
2023/07/04 07:36:21;;;;;;;0.10;0.10;;;;;;;14.95;100.00;96396.72;5060800;28;20046;-77
2023/07/04 07:39:10;;;;;;;0.10;0.10;;;;;;;14.98;100.00;96384.56;5073919;28;20671;-77
2023/07/04 07:41:56;;;;;;;0.10;0.10;;;;;;;14.87;100.00;96383.84;5057382;28;20044;-77
2023/07/04 07:44:42;;;;;;;0.10;0.10;;;;;;;14.66;100.00;96379.63;5060603;28;20047;-77
2023/07/04 07:47:28;;;;;;;0.10;0.10;;;;;;;14.96;100.00;96394.84;5073131;28;20421;-78
2023/07/04 07:50:14;;;;;;;0.10;0.10;;;;;;;15.10;100.00;96385.06;5055889;28;20132;-79
2023/07/04 07:53:00;;;;;;;0.10;0.10;;;;;;;15.43;100.00;96390.78;5039592;28;20036;-78
2023/07/04 07:55:46;;;;;;;0.10;0.10;;;;;;;15.20;100.00;96393.06;5059416;28;20169;-78
2023/07/04 07:58:33;;;;;;;0.10;0.10;;;;;;;15.32;100.00;96392.72;5058501;28;20036;-79
2023/07/04 08:01:23;;;;;;;0.10;0.10;;;;;;;15.08;100.00;96389.09;5046054;28;20039;-79
2023/07/04 08:04:09;;;;;;;0.20;0.20;;;;;;;15.23;100.00;96405.97;5044268;28;20035;-79
2023/07/04 08:06:55;;;;;;;0.10;0.10;;;;;;;15.69;100.00;96391.41;5059756;28;20192;-79
2023/07/04 08:09:41;;;;;;;0.10;0.10;;;;;;;15.79;100.00;96400.19;5056665;28;20519;-79
2023/07/04 08:12:27;;;;;;;0.10;0.10;;;;;;;15.83;100.00;96403.16;5059451;28;20885;-78
2023/07/04 08:15:13;;;;;;;0.10;0.10;;;;;;;15.71;100.00;96400.81;5046676;28;20517;-78
2023/07/04 08:18:05;;;;;;;0.00;0.00;;;;;;;15.73;100.00;96412.16;5072092;28;20052;-77
2023/07/04 08:20:59;;;;;;;0.20;0.20;;;;;;;15.57;100.00;96395.25;5056476;28;20041;-78
2023/07/04 08:23:45;;;;;;;0.20;0.20;;;;;;;15.62;100.00;96402.50;5058991;28;20108;-78
2023/07/04 08:26:33;;;;;;;0.22;0.20;;;;;;;15.49;100.00;96392.34;5062035;28;20040;-78
2023/07/04 08:29:19;;;;;;;0.10;0.10;;;;;;;15.99;100.00;96390.34;5054632;28;20031;-78
2023/07/04 08:32:06;;;;;;;0.10;0.10;;;;;;;15.59;100.00;96403.06;5058993;28;20146;-79
2023/07/04 08:34:52;;;;;;;0.10;0.10;;;;;;;15.99;100.00;96401.94;5074106;28;20059;-79
2023/07/04 08:37:38;;;;;;;0.20;0.20;;;;;;;16.05;100.00;96405.41;5043538;28;20040;-79
2023/07/04 08:40:24;;;;;;;0.10;0.10;;;;;;;15.99;100.00;96417.31;5075299;28;20829;-79
2023/07/04 08:43:12;;;;;;;0.10;0.10;;;;;;;15.76;100.00;96406.19;5075073;28;20040;-78
2023/07/04 08:45:58;;;;;;;0.10;0.10;;;;;;;15.69;100.00;96408.38;5039194;28;21686;-79
2023/07/04 08:48:45;;;;;;;0.10;0.10;;;;;;;16.03;100.00;96396.75;5058972;28;20050;-78
2023/07/04 08:51:45;;;;;;;0.17;0.17;;;;;;;15.92;100.00;96412.25;5059651;28;20070;-78
2023/07/04 08:54:33;;;;;;;0.10;0.10;;;;;;;16.36;100.00;96408.59;5054041;28;20044;-78
2023/07/04 08:57:40;;;;;;;0.10;0.10;;;;;;;16.39;100.00;96400.72;5044968;28;20163;-78
2023/07/04 09:00:43;;;;;;;0.10;0.10;;;;;;;16.78;100.00;96407.88;5037794;28;20125;-79
2023/07/04 09:03:38;;;;;;;0.10;0.10;;;;;;;16.82;100.00;96408.91;5071253;28;20422;-78
2023/07/04 09:06:35;;;;;;;0.10;0.10;;;;;;;16.89;100.00;96422.88;5052113;28;20036;-79
2023/07/04 09:09:41;;;;;;;0.20;0.20;;;;;;;17.09;100.00;96418.28;5058050;28;20675;-79
2023/07/04 09:12:32;;;;;;;0.10;0.10;;;;;;;17.12;100.00;96417.69;5057541;28;20048;-78
2023/07/04 09:15:33;;;;;;;;;;;;;;;17.52;100.00;96417.16;5059721;28;20276;-78
2023/07/04 09:18:57;;;;;;;0.17;0.17;;;;;;;17.50;100.00;96419.31;5052722;28;20648;-78
2023/07/04 09:21:44;;;;;;;0.10;0.10;;;;;;;17.77;100.00;96420.59;4993089;28;20043;-79
2023/07/04 09:24:30;;;;;;;0.20;0.20;;;;;;;17.58;100.00;96414.34;5046361;28;20043;-79
2023/07/04 09:27:16;;;;;;;0.20;0.20;;;;;;;17.63;100.00;96423.19;5057064;28;20070;-79
2023/07/04 09:30:04;;;;;;;0.10;0.10;;;;;;;17.78;100.00;96414.88;5045838;28;20032;-79
2023/07/04 09:32:49;;;;;;;0.10;0.10;;;;;;;17.54;100.00;96423.06;5058346;28;20726;-79
2023/07/04 09:35:36;;;;;;;0.20;0.20;;;;;;;17.76;100.00;96435.22;5043933;28;20127;-79
2023/07/04 09:38:22;;;;;;;0.20;0.20;;;;;;;17.72;97.33;96417.94;5058353;28;20048;-78
2023/07/04 09:41:12;;;;;;;0.10;0.10;;;;;;;17.36;100.00;96423.88;5057688;28;20786;-78
2023/07/04 09:44:29;;;;;;;0.10;0.10;;;;;;;17.48;100.00;96418.00;5055890;28;20898;-79
2023/07/04 09:47:26;;;;;;;0.15;0.10;;;;;;;18.47;100.00;96417.75;5051245;28;20079;-79
2023/07/04 09:50:23;;;;;;;0.10;0.10;;;;;;;18.96;94.13;96427.09;5057907;28;20051;-79
2023/07/04 09:53:11;;;;;;;0.10;0.10;;;;;;;18.23;98.44;96415.19;5058595;28;20039;-79
2023/07/04 09:56:00;;;;;;;0.10;0.10;;;;;;;18.49;97.73;96412.81;5056974;28;20529;-78
2023/07/04 09:58:46;;;;;;;0.10;0.10;;;;;;;19.32;95.30;96401.94;5036201;28;20495;-78
2023/07/04 10:01:33;;;;;;;0.10;0.10;;;;;;;19.28;95.26;96411.78;5056631;28;20042;-79
2023/07/04 10:04:29;;;;;;;0.10;0.10;;;;;;;19.32;91.73;96412.78;5053083;28;20043;-79
2023/07/04 10:07:20;;;;;;;0.10;0.10;;;;;;;19.69;92.46;96398.94;5071314;28;20656;-78
2023/07/04 10:10:12;;;;;;;0.10;0.10;;;;;;;19.37;95.33;96416.19;5069807;28;20040;-79
2023/07/04 10:12:58;;;;;;;0.10;0.10;;;;;;;19.79;93.90;96413.38;5070239;28;20048;-79
2023/07/04 10:15:46;;;;;;;0.20;0.20;;;;;;;19.82;92.30;96404.59;5070768;28;20047;-79
2023/07/04 10:18:33;;;;;;;0.10;0.10;;;;;;;19.71;90.18;96402.13;5042172;28;20055;-79
2023/07/04 10:21:19;;;;;;;0.10;0.10;;;;;;;19.12;93.03;96428.38;5056355;28;20545;-79
2023/07/04 10:24:07;;;;;;;0.10;0.10;;;;;;;19.47;94.62;96409.75;5071865;28;21194;-79
2023/07/04 10:27:02;;;;;;;0.10;0.10;;;;;;;19.75;90.54;96402.31;5037460;28;20074;-79
2023/07/04 10:29:52;;;;;;;0.10;0.10;;;;;;;19.66;89.31;96412.31;5070147;28;20035;-78
2023/07/04 10:32:43;;;;;;;0.10;0.10;;;;;;;19.98;87.89;96408.53;5024698;28;20051;-79
2023/07/04 10:35:36;;;;;;;0.10;0.10;;;;;;;20.46;86.98;96403.25;5072736;28;20042;-79
2023/07/04 10:38:39;;;;;;;0.10;0.10;;;;;;;20.07;90.77;96406.69;5050644;28;20490;-78
2023/07/04 10:41:46;;;;;;;0.10;0.10;;;;;;;20.79;86.90;96392.84;5055824;28;20055;-79
2023/07/04 10:44:34;;;;;;;0.00;0.00;;;;;;;21.04;84.92;96395.94;5055588;28;20043;-79
2023/07/04 10:47:30;;;;;;;0.10;0.10;;;;;;;20.92;85.95;96398.44;5056549;28;20040;-79
2023/07/04 10:50:27;;;;;;;0.10;0.10;;;;;;;21.13;83.28;96408.44;5056702;28;20044;-79
2023/07/04 10:53:13;;;;;;;0.00;0.00;;;;;;;21.01;81.93;96402.00;5057480;28;20040;-79
2023/07/04 10:56:08;;;;;;;0.25;0.20;;;;;;;21.32;81.92;96386.41;5042229;28;20067;-79
2023/07/04 10:59:03;;;;;;;0.20;0.20;;;;;;;21.76;77.79;96400.81;5048156;28;20043;-79
2023/07/04 11:01:55;;;;;;;0.10;0.10;;;;;;;22.01;76.17;96385.56;5042973;28;20044;-79
2023/07/04 11:04:41;;;;;;;0.10;0.10;;;;;;;22.71;74.87;96397.06;5056606;28;20047;-79
2023/07/04 11:07:28;;;;;;;0.10;0.10;;;;;;;22.21;67.75;96397.75;5070448;28;20455;-79
2023/07/04 11:10:15;;;;;;;0.10;0.10;;;;;;;21.99;72.56;96398.72;5056121;28;20055;-79
2023/07/04 11:13:01;;;;;;;0.20;0.20;;;;;;;22.05;68.04;96391.19;5054240;28;20044;-80
2023/07/04 11:15:54;;;;;;;0.10;0.10;;;;;;;23.14;62.07;96396.09;5042062;28;20502;-80
2023/07/04 11:18:44;;;;;;;0.10;0.10;;;;;;;24.60;53.81;96393.22;5045128;28;20577;-79
2023/07/04 11:21:31;;;;;;;0.10;0.10;;;;;;;22.61;62.26;96392.78;5055844;28;20040;-80
2023/07/04 11:24:20;;;;;;;0.00;0.00;;;;;;;23.49;67.21;96393.91;5050778;28;20817;-79
2023/07/04 11:27:15;;;;;;;0.15;0.15;;;;;;;24.55;51.34;96391.50;5053462;28;20047;-79
2023/07/04 11:30:05;;;;;;;0.10;0.10;;;;;;;25.17;52.67;96379.44;5071540;28;20588;-79
2023/07/04 11:32:57;;;;;;;0.10;0.10;;;;;;;23.49;58.84;96378.31;5044189;28;20075;-79
2023/07/04 11:35:44;;;;;;;0.08;0.08;;;;;;;23.03;69.32;96387.47;5051029;28;20129;-79
2023/07/04 11:38:31;;;;;;;0.13;0.13;;;;;;;23.01;70.73;96385.06;5069355;28;20031;-80
2023/07/04 11:41:26;;;;;;;0.10;0.10;;;;;;;22.93;65.02;96390.59;5070295;28;20050;-79
2023/07/04 11:44:14;;;;;;;0.00;0.00;;;;;;;23.06;68.48;96401.28;5058158;28;20043;-78
2023/07/04 11:47:04;;;;;;;0.10;0.10;;;;;;;23.97;54.57;96393.41;5056884;28;20093;-79
2023/07/04 11:49:57;;;;;;;0.10;0.10;;;;;;;23.81;54.69;96400.59;5055941;28;20035;-79
2023/07/04 11:52:54;;;;;;;0.10;0.10;;;;;;;23.07;63.04;96386.50;5055120;28;20043;-79
2023/07/04 11:55:40;;;;;;;0.15;0.15;;;;;;;22.74;59.31;96386.31;5057451;28;20042;-80
2023/07/04 11:58:26;;;;;;;0.10;0.10;;;;;;;24.60;57.25;96376.81;5058630;28;20036;-79
2023/07/04 12:01:14;;;;;;;0.20;0.20;;;;;;;26.90;45.80;96379.13;5059867;28;20036;-79
2023/07/04 12:04:04;;;;;;;0.10;0.10;;;;;;;30.24;34.67;96369.72;5059404;28;20036;-79
2023/07/04 12:07:07;;;;;;;0.10;0.10;;;;;;;30.58;28.22;96377.13;5051285;28;20039;-80
2023/07/04 12:10:02;;;;;;;0.10;0.10;;;;;;;27.85;35.70;96375.38;5067231;28;20040;-79
2023/07/04 12:12:58;;;;;;;0.10;0.10;;;;;;;26.47;40.80;96373.75;5073257;28;20452;-80
2023/07/04 12:15:51;;;;;;;0.10;0.10;;;;;;;25.75;40.17;96376.47;5055370;28;20122;-80
2023/07/04 12:18:39;;;;;;;0.10;0.10;;;;;;;24.56;48.21;96373.94;5038947;28;20526;-79
2023/07/04 12:21:27;;;;;;;0.10;0.10;;;;;;;24.46;54.49;96366.19;5057592;28;20039;-78
2023/07/04 12:24:18;;;;;;;0.20;0.20;;;;;;;26.59;41.10;96363.47;5071982;28;20036;-79
2023/07/04 12:27:04;;;;;;;0.10;0.10;;;;;;;32.33;28.37;96341.09;5072363;28;20078;-79
2023/07/04 12:29:50;;;;;;;0.10;0.10;;;;;;;34.84;25.13;96336.41;5072205;28;20093;-79
2023/07/04 12:32:39;;;;;;;0.10;0.10;;;;;;;32.90;24.56;96341.16;5039875;28;20743;-80
2023/07/04 12:35:35;;;;;;;0.10;0.10;;;;;;;35.97;21.77;96342.06;5053725;28;20079;-79
2023/07/04 12:38:22;;;;;;;0.00;0.00;;;;;;;30.65;28.12;96331.06;5074195;28;20044;-80
2023/07/04 12:41:09;;;;;;;0.10;0.10;;;;;;;27.04;36.81;96345.75;5056358;28;20517;-79
2023/07/04 12:44:00;;;;;;;0.05;0.05;;;;;;;25.34;43.35;96361.97;5055036;28;20044;-79
2023/07/04 12:46:46;;;;;;;0.10;0.10;;;;;;;24.86;50.30;96366.31;5072507;28;20092;-79
2023/07/04 12:49:32;;;;;;;0.10;0.10;;;;;;;24.95;46.92;96358.78;5074261;28;20924;-80
2023/07/04 12:52:32;;;;;;;0.10;0.10;;;;;;;26.40;36.53;96357.13;5072789;28;20785;-79
2023/07/04 12:55:26;;;;;;;0.10;0.10;;;;;;;26.37;40.64;96359.38;5058731;28;20693;-79
2023/07/04 12:58:14;;;;;;;0.10;0.10;;;;;;;25.76;44.05;96356.97;5038811;28;20043;-79
2023/07/04 13:01:06;;;;;;;0.10;0.10;;;;;;;25.70;43.16;96349.31;5071490;28;20044;-79
2023/07/04 13:03:57;;;;;;;0.10;0.10;;;;;;;27.29;35.68;96362.00;5071423;28;20078;-79
2023/07/04 13:06:49;;;;;;;0.10;0.10;;;;;;;26.31;38.07;96352.56;5057289;28;20177;-78